sensor_id;sensor_type;location;lat;lon;timestamp;P1;P2;P0
28026;PMS5003;15344;52.342;-1.290;2023-08-30T00:00:39;3;3;
28026;PMS5003;15344;52.342;-1.290;2023-08-30T00:03:04;3;3;
28026;PMS5003;15344;52.342;-1.290;2023-08-30T00:05:30;4;4;
28026;PMS5003;15344;52.342;-1.290;2023-08-30T00:07:55;6;5;
28026;PMS5003;15344;52.342;-1.290;2023-08-30T00:10:20;6;3;
28026;PMS5003;15344;52.342;-1.290;2023-08-30T00:12:45;7;3;
28026;PMS5003;15344;52.342;-1.290;2023-08-30T00:15:10;6;6;
28026;PMS5003;15344;52.342;-1.290;2023-08-30T00:17:36;6;4;
28026;PMS5003;15344;52.342;-1.290;2023-08-30T00:20:01;5;2;
28026;PMS5003;15344;52.342;-1.290;2023-08-30T00:22:27;4;3;
28026;PMS5003;15344;52.342;-1.290;2023-08-30T00:24:52;6;6;
28026;PMS5003;15344;52.342;-1.290;2023-08-30T00:27:17;9;6;
28026;PMS5003;15344;52.342;-1.290;2023-08-30T00:29:43;6;4;
28026;PMS5003;15344;52.342;-1.290;2023-08-30T00:32:08;4;4;
28026;PMS5003;15344;52.342;-1.290;2023-08-30T00:34:34;8;6;
28026;PMS5003;15344;52.342;-1.290;2023-08-30T00:36:59;6;4;
28026;PMS5003;15344;52.342;-1.290;2023-08-30T00:39:24;9;7;
28026;PMS5003;15344;52.342;-1.290;2023-08-30T00:41:49;6;4;
28026;PMS5003;15344;52.342;-1.290;2023-08-30T00:44:15;7;4;
28026;PMS5003;15344;52.342;-1.290;2023-08-30T00:46:40;7;5;
28026;PMS5003;15344;52.342;-1.290;2023-08-30T00:49:05;6;4;
28026;PMS5003;15344;52.342;-1.290;2023-08-30T00:51:31;5;4;
28026;PMS5003;15344;52.342;-1.290;2023-08-30T00:53:56;5;5;
28026;PMS5003;15344;52.342;-1.290;2023-08-30T00:56:21;7;6;
28026;PMS5003;15344;52.342;-1.290;2023-08-30T00:58:47;7;3;
28026;PMS5003;15344;52.342;-1.290;2023-08-30T01:01:12;5;5;
28026;PMS5003;15344;52.342;-1.290;2023-08-30T01:03:37;4;4;
28026;PMS5003;15344;52.342;-1.290;2023-08-30T01:06:03;5;4;
28026;PMS5003;15344;52.342;-1.290;2023-08-30T01:08:29;7;7;
28026;PMS5003;15344;52.342;-1.290;2023-08-30T01:10:56;6;6;
28026;PMS5003;15344;52.342;-1.290;2023-08-30T01:13:19;7;5;
28026;PMS5003;15344;52.342;-1.290;2023-08-30T01:15:46;6;5;
28026;PMS5003;15344;52.342;-1.290;2023-08-30T01:18:10;6;4;
28026;PMS5003;15344;52.342;-1.290;2023-08-30T01:20:36;5;5;
28026;PMS5003;15344;52.342;-1.290;2023-08-30T01:23:03;4;4;
28026;PMS5003;15344;52.342;-1.290;2023-08-30T01:25:30;5;4;
28026;PMS5003;15344;52.342;-1.290;2023-08-30T01:27:51;4;3;
28026;PMS5003;15344;52.342;-1.290;2023-08-30T01:30:17;6;6;
28026;PMS5003;15344;52.342;-1.290;2023-08-30T01:32:42;7;4;
28026;PMS5003;15344;52.342;-1.290;2023-08-30T01:35:08;4;3;
28026;PMS5003;15344;52.342;-1.290;2023-08-30T01:37:33;5;4;
28026;PMS5003;15344;52.342;-1.290;2023-08-30T01:39:58;6;4;
28026;PMS5003;15344;52.342;-1.290;2023-08-30T01:42:24;6;6;
28026;PMS5003;15344;52.342;-1.290;2023-08-30T01:44:49;3;2;
28026;PMS5003;15344;52.342;-1.290;2023-08-30T01:47:14;5;4;
28026;PMS5003;15344;52.342;-1.290;2023-08-30T01:49:39;7;4;
28026;PMS5003;15344;52.342;-1.290;2023-08-30T01:52:05;4;4;
28026;PMS5003;15344;52.342;-1.290;2023-08-30T01:54:30;7;4;
28026;PMS5003;15344;52.342;-1.290;2023-08-30T01:56:55;1;1;
28026;PMS5003;15344;52.342;-1.290;2023-08-30T01:59:20;4;3;
28026;PMS5003;15344;52.342;-1.290;2023-08-30T02:01:46;6;3;
28026;PMS5003;15344;52.342;-1.290;2023-08-30T02:04:11;4;3;
28026;PMS5003;15344;52.342;-1.290;2023-08-30T02:06:39;5;4;
28026;PMS5003;15344;52.342;-1.290;2023-08-30T02:09:03;4;4;
28026;PMS5003;15344;52.342;-1.290;2023-08-30T02:11:27;7;4;
28026;PMS5003;15344;52.342;-1.290;2023-08-30T02:13:53;5;5;
28026;PMS5003;15344;52.342;-1.290;2023-08-30T02:16:17;4;2;
28026;PMS5003;15344;52.342;-1.290;2023-08-30T02:18:43;3;3;
28026;PMS5003;15344;52.342;-1.290;2023-08-30T02:21:08;6;4;
28026;PMS5003;15344;52.342;-1.290;2023-08-30T02:23:33;4;4;
28026;PMS5003;15344;52.342;-1.290;2023-08-30T02:25:59;4;4;
28026;PMS5003;15344;52.342;-1.290;2023-08-30T02:28:24;5;3;
28026;PMS5003;15344;52.342;-1.290;2023-08-30T02:30:52;5;3;
28026;PMS5003;15344;52.342;-1.290;2023-08-30T02:33:15;5;3;
28026;PMS5003;15344;52.342;-1.290;2023-08-30T02:35:40;5;4;
28026;PMS5003;15344;52.342;-1.290;2023-08-30T02:38:05;3;3;
28026;PMS5003;15344;52.342;-1.290;2023-08-30T02:40:31;5;3;
28026;PMS5003;15344;52.342;-1.290;2023-08-30T02:42:56;5;4;
28026;PMS5003;15344;52.342;-1.290;2023-08-30T02:45:21;5;3;
28026;PMS5003;15344;52.342;-1.290;2023-08-30T02:47:47;5;5;
28026;PMS5003;15344;52.342;-1.290;2023-08-30T02:50:12;8;3;
28026;PMS5003;15344;52.342;-1.290;2023-08-30T02:52:37;5;5;
28026;PMS5003;15344;52.342;-1.290;2023-08-30T02:55:02;7;5;
28026;PMS5003;15344;52.342;-1.290;2023-08-30T02:57:27;7;4;
28026;PMS5003;15344;52.342;-1.290;2023-08-30T02:59:53;4;3;
28026;PMS5003;15344;52.342;-1.290;2023-08-30T03:02:18;5;3;
28026;PMS5003;15344;52.342;-1.290;2023-08-30T03:04:43;2;1;
28026;PMS5003;15344;52.342;-1.290;2023-08-30T03:07:09;5;4;
28026;PMS5003;15344;52.342;-1.290;2023-08-30T03:09:34;5;4;
28026;PMS5003;15344;52.342;-1.290;2023-08-30T03:11:59;6;2;
28026;PMS5003;15344;52.342;-1.290;2023-08-30T03:14:24;2;2;
28026;PMS5003;15344;52.342;-1.290;2023-08-30T03:16:50;4;3;
28026;PMS5003;15344;52.342;-1.290;2023-08-30T03:19:15;6;3;
28026;PMS5003;15344;52.342;-1.290;2023-08-30T03:21:41;3;3;
28026;PMS5003;15344;52.342;-1.290;2023-08-30T03:24:05;3;3;
28026;PMS5003;15344;52.342;-1.290;2023-08-30T03:26:31;7;3;
28026;PMS5003;15344;52.342;-1.290;2023-08-30T03:28:56;5;4;
28026;PMS5003;15344;52.342;-1.290;2023-08-30T03:31:22;7;3;
28026;PMS5003;15344;52.342;-1.290;2023-08-30T03:33:48;6;3;
28026;PMS5003;15344;52.342;-1.290;2023-08-30T03:36:13;5;3;
28026;PMS5003;15344;52.342;-1.290;2023-08-30T03:38:38;3;3;
28026;PMS5003;15344;52.342;-1.290;2023-08-30T03:41:03;3;3;
28026;PMS5003;15344;52.342;-1.290;2023-08-30T03:43:28;6;3;
28026;PMS5003;15344;52.342;-1.290;2023-08-30T03:45:54;4;4;
28026;PMS5003;15344;52.342;-1.290;2023-08-30T03:48:19;6;5;
28026;PMS5003;15344;52.342;-1.290;2023-08-30T03:50:44;6;3;
28026;PMS5003;15344;52.342;-1.290;2023-08-30T03:53:10;3;1;
28026;PMS5003;15344;52.342;-1.290;2023-08-30T03:55:35;3;3;
28026;PMS5003;15344;52.342;-1.290;2023-08-30T03:58:00;2;2;
28026;PMS5003;15344;52.342;-1.290;2023-08-30T04:00:25;3;3;
28026;PMS5003;15344;52.342;-1.290;2023-08-30T04:02:50;4;4;
28026;PMS5003;15344;52.342;-1.290;2023-08-30T04:05:16;4;3;
28026;PMS5003;15344;52.342;-1.290;2023-08-30T04:07:41;3;3;
28026;PMS5003;15344;52.342;-1.290;2023-08-30T04:10:06;4;4;
28026;PMS5003;15344;52.342;-1.290;2023-08-30T04:12:32;7;4;
28026;PMS5003;15344;52.342;-1.290;2023-08-30T04:14:57;5;4;
28026;PMS5003;15344;52.342;-1.290;2023-08-30T04:17:22;3;3;
28026;PMS5003;15344;52.342;-1.290;2023-08-30T04:19:47;7;4;
28026;PMS5003;15344;52.342;-1.290;2023-08-30T04:22:12;7;4;
28026;PMS5003;15344;52.342;-1.290;2023-08-30T04:24:38;5;5;
28026;PMS5003;15344;52.342;-1.290;2023-08-30T04:27:03;3;3;
28026;PMS5003;15344;52.342;-1.290;2023-08-30T04:29:28;3;2;
28026;PMS5003;15344;52.342;-1.290;2023-08-30T04:31:54;5;4;
28026;PMS5003;15344;52.342;-1.290;2023-08-30T04:34:19;3;3;
28026;PMS5003;15344;52.342;-1.290;2023-08-30T04:36:44;2;2;
28026;PMS5003;15344;52.342;-1.290;2023-08-30T04:39:10;5;2;
28026;PMS5003;15344;52.342;-1.290;2023-08-30T04:41:35;10;4;
28026;PMS5003;15344;52.342;-1.290;2023-08-30T04:44:00;2;2;
28026;PMS5003;15344;52.342;-1.290;2023-08-30T04:46:26;5;4;
28026;PMS5003;15344;52.342;-1.290;2023-08-30T04:48:51;7;5;
28026;PMS5003;15344;52.342;-1.290;2023-08-30T04:51:16;4;2;
28026;PMS5003;15344;52.342;-1.290;2023-08-30T04:53:42;5;3;
28026;PMS5003;15344;52.342;-1.290;2023-08-30T04:56:10;8;5;
28026;PMS5003;15344;52.342;-1.290;2023-08-30T04:58:32;3;3;
28026;PMS5003;15344;52.342;-1.290;2023-08-30T05:00:57;6;4;
28026;PMS5003;15344;52.342;-1.290;2023-08-30T05:03:23;3;3;
28026;PMS5003;15344;52.342;-1.290;2023-08-30T05:05:48;9;4;
28026;PMS5003;15344;52.342;-1.290;2023-08-30T05:08:13;6;5;
28026;PMS5003;15344;52.342;-1.290;2023-08-30T05:10:39;6;4;
28026;PMS5003;15344;52.342;-1.290;2023-08-30T05:13:04;2;2;
28026;PMS5003;15344;52.342;-1.290;2023-08-30T05:15:29;2;2;
28026;PMS5003;15344;52.342;-1.290;2023-08-30T05:17:54;3;3;
28026;PMS5003;15344;52.342;-1.290;2023-08-30T05:20:20;3;3;
28026;PMS5003;15344;52.342;-1.290;2023-08-30T05:22:45;6;3;
28026;PMS5003;15344;52.342;-1.290;2023-08-30T05:25:10;6;3;
28026;PMS5003;15344;52.342;-1.290;2023-08-30T05:27:36;3;3;
28026;PMS5003;15344;52.342;-1.290;2023-08-30T05:30:01;4;4;
28026;PMS5003;15344;52.342;-1.290;2023-08-30T05:32:26;7;3;
28026;PMS5003;15344;52.342;-1.290;2023-08-30T05:34:51;3;3;
28026;PMS5003;15344;52.342;-1.290;2023-08-30T05:37:17;3;2;
28026;PMS5003;15344;52.342;-1.290;2023-08-30T05:39:42;5;4;
28026;PMS5003;15344;52.342;-1.290;2023-08-30T05:42:07;5;5;
28026;PMS5003;15344;52.342;-1.290;2023-08-30T05:44:32;7;4;
28026;PMS5003;15344;52.342;-1.290;2023-08-30T05:46:58;6;3;
28026;PMS5003;15344;52.342;-1.290;2023-08-30T05:49:24;5;3;
28026;PMS5003;15344;52.342;-1.290;2023-08-30T05:51:49;3;3;
28026;PMS5003;15344;52.342;-1.290;2023-08-30T05:54:14;9;5;
28026;PMS5003;15344;52.342;-1.290;2023-08-30T05:56:40;5;5;
28026;PMS5003;15344;52.342;-1.290;2023-08-30T05:59:05;2;0;
28026;PMS5003;15344;52.342;-1.290;2023-08-30T06:01:30;5;3;
28026;PMS5003;15344;52.342;-1.290;2023-08-30T06:03:55;3;3;
28026;PMS5003;15344;52.342;-1.290;2023-08-30T06:06:21;5;5;
28026;PMS5003;15344;52.342;-1.290;2023-08-30T06:08:46;8;5;
28026;PMS5003;15344;52.342;-1.290;2023-08-30T06:11:11;6;5;
28026;PMS5003;15344;52.342;-1.290;2023-08-30T06:13:36;7;4;
28026;PMS5003;15344;52.342;-1.290;2023-08-30T06:16:02;2;2;
28026;PMS5003;15344;52.342;-1.290;2023-08-30T06:18:29;9;2;
28026;PMS5003;15344;52.342;-1.290;2023-08-30T06:20:52;6;5;
28026;PMS5003;15344;52.342;-1.290;2023-08-30T06:23:18;7;5;
28026;PMS5003;15344;52.342;-1.290;2023-08-30T06:25:43;5;4;
28026;PMS5003;15344;52.342;-1.290;2023-08-30T06:28:08;4;4;
28026;PMS5003;15344;52.342;-1.290;2023-08-30T06:30:33;4;4;
28026;PMS5003;15344;52.342;-1.290;2023-08-30T06:32:59;6;6;
28026;PMS5003;15344;52.342;-1.290;2023-08-30T06:35:24;3;3;
28026;PMS5003;15344;52.342;-1.290;2023-08-30T06:37:49;5;5;
28026;PMS5003;15344;52.342;-1.290;2023-08-30T06:40:15;5;4;
28026;PMS5003;15344;52.342;-1.290;2023-08-30T06:42:40;5;5;
28026;PMS5003;15344;52.342;-1.290;2023-08-30T06:45:05;5;4;
28026;PMS5003;15344;52.342;-1.290;2023-08-30T06:47:30;4;4;
28026;PMS5003;15344;52.342;-1.290;2023-08-30T06:49:56;2;2;
28026;PMS5003;15344;52.342;-1.290;2023-08-30T06:52:21;6;3;
28026;PMS5003;15344;52.342;-1.290;2023-08-30T06:54:46;5;3;
28026;PMS5003;15344;52.342;-1.290;2023-08-30T06:57:11;5;3;
28026;PMS5003;15344;52.342;-1.290;2023-08-30T06:59:37;7;3;
28026;PMS5003;15344;52.342;-1.290;2023-08-30T07:02:02;3;2;
28026;PMS5003;15344;52.342;-1.290;2023-08-30T07:04:27;6;3;
28026;PMS5003;15344;52.342;-1.290;2023-08-30T07:06:52;3;3;
28026;PMS5003;15344;52.342;-1.290;2023-08-30T07:09:17;5;5;
28026;PMS5003;15344;52.342;-1.290;2023-08-30T07:11:43;7;4;
28026;PMS5003;15344;52.342;-1.290;2023-08-30T07:14:08;5;5;
28026;PMS5003;15344;52.342;-1.290;2023-08-30T07:16:33;3;3;
28026;PMS5003;15344;52.342;-1.290;2023-08-30T07:18:59;5;4;
28026;PMS5003;15344;52.342;-1.290;2023-08-30T07:21:24;5;5;
28026;PMS5003;15344;52.342;-1.290;2023-08-30T07:23:49;4;4;
28026;PMS5003;15344;52.342;-1.290;2023-08-30T07:26:14;6;4;
28026;PMS5003;15344;52.342;-1.290;2023-08-30T07:28:39;2;1;
28026;PMS5003;15344;52.342;-1.290;2023-08-30T07:31:05;6;4;
28026;PMS5003;15344;52.342;-1.290;2023-08-30T07:33:30;2;2;
28026;PMS5003;15344;52.342;-1.290;2023-08-30T07:35:55;3;2;
28026;PMS5003;15344;52.342;-1.290;2023-08-30T07:38:20;4;4;
28026;PMS5003;15344;52.342;-1.290;2023-08-30T07:40:45;2;1;
28026;PMS5003;15344;52.342;-1.290;2023-08-30T07:43:11;4;3;
28026;PMS5003;15344;52.342;-1.290;2023-08-30T07:45:36;3;2;
28026;PMS5003;15344;52.342;-1.290;2023-08-30T07:48:01;6;3;
28026;PMS5003;15344;52.342;-1.290;2023-08-30T07:50:27;4;2;
28026;PMS5003;15344;52.342;-1.290;2023-08-30T07:52:52;4;2;
28026;PMS5003;15344;52.342;-1.290;2023-08-30T07:55:18;2;2;
28026;PMS5003;15344;52.342;-1.290;2023-08-30T07:57:44;3;2;
28026;PMS5003;15344;52.342;-1.290;2023-08-30T08:00:10;2;2;
28026;PMS5003;15344;52.342;-1.290;2023-08-30T08:02:36;2;2;
28026;PMS5003;15344;52.342;-1.290;2023-08-30T08:05:02;3;0;
28026;PMS5003;15344;52.342;-1.290;2023-08-30T08:07:27;2;2;
28026;PMS5003;15344;52.342;-1.290;2023-08-30T08:09:53;2;2;
28026;PMS5003;15344;52.342;-1.290;2023-08-30T08:12:19;5;3;
28026;PMS5003;15344;52.342;-1.290;2023-08-30T08:14:45;4;4;
28026;PMS5003;15344;52.342;-1.290;2023-08-30T08:17:11;3;2;
28026;PMS5003;15344;52.342;-1.290;2023-08-30T08:19:37;4;2;
28026;PMS5003;15344;52.342;-1.290;2023-08-30T08:22:03;7;4;
28026;PMS5003;15344;52.342;-1.290;2023-08-30T08:24:28;4;3;
28026;PMS5003;15344;52.342;-1.290;2023-08-30T08:26:54;3;2;
28026;PMS5003;15344;52.342;-1.290;2023-08-30T08:29:19;2;2;
28026;PMS5003;15344;52.342;-1.290;2023-08-30T08:31:44;3;2;
28026;PMS5003;15344;52.342;-1.290;2023-08-30T08:34:10;2;2;
28026;PMS5003;15344;52.342;-1.290;2023-08-30T08:36:34;3;2;
28026;PMS5003;15344;52.342;-1.290;2023-08-30T08:39:00;4;3;
28026;PMS5003;15344;52.342;-1.290;2023-08-30T08:41:25;5;3;
28026;PMS5003;15344;52.342;-1.290;2023-08-30T08:43:50;6;3;
28026;PMS5003;15344;52.342;-1.290;2023-08-30T08:46:15;3;3;
28026;PMS5003;15344;52.342;-1.290;2023-08-30T08:48:40;3;1;
28026;PMS5003;15344;52.342;-1.290;2023-08-30T08:51:05;2;2;
28026;PMS5003;15344;52.342;-1.290;2023-08-30T08:53:30;0;0;
28026;PMS5003;15344;52.342;-1.290;2023-08-30T08:55:55;2;0;
28026;PMS5003;15344;52.342;-1.290;2023-08-30T08:58:20;3;1;
28026;PMS5003;15344;52.342;-1.290;2023-08-30T09:00:45;1;1;
28026;PMS5003;15344;52.342;-1.290;2023-08-30T09:03:10;0;0;
28026;PMS5003;15344;52.342;-1.290;2023-08-30T09:05:36;1;1;
28026;PMS5003;15344;52.342;-1.290;2023-08-30T09:08:02;0;0;
28026;PMS5003;15344;52.342;-1.290;2023-08-30T09:10:27;2;2;
28026;PMS5003;15344;52.342;-1.290;2023-08-30T09:12:53;1;1;
28026;PMS5003;15344;52.342;-1.290;2023-08-30T09:15:18;3;2;
28026;PMS5003;15344;52.342;-1.290;2023-08-30T09:17:44;0;0;
28026;PMS5003;15344;52.342;-1.290;2023-08-30T09:20:11;1;1;
28026;PMS5003;15344;52.342;-1.290;2023-08-30T09:22:36;2;2;
28026;PMS5003;15344;52.342;-1.290;2023-08-30T09:25:02;3;2;
28026;PMS5003;15344;52.342;-1.290;2023-08-30T09:27:31;2;0;
28026;PMS5003;15344;52.342;-1.290;2023-08-30T09:29:58;1;0;
28026;PMS5003;15344;52.342;-1.290;2023-08-30T09:32:20;4;2;
28026;PMS5003;15344;52.342;-1.290;2023-08-30T09:34:46;2;2;
28026;PMS5003;15344;52.342;-1.290;2023-08-30T09:39:36;3;1;
28026;PMS5003;15344;52.342;-1.290;2023-08-30T09:42:02;0;0;
28026;PMS5003;15344;52.342;-1.290;2023-08-30T09:44:29;2;2;
28026;PMS5003;15344;52.342;-1.290;2023-08-30T09:46:54;0;0;
28026;PMS5003;15344;52.342;-1.290;2023-08-30T09:49:20;1;1;
28026;PMS5003;15344;52.342;-1.290;2023-08-30T09:51:46;3;2;
28026;PMS5003;15344;52.342;-1.290;2023-08-30T09:54:14;1;1;
28026;PMS5003;15344;52.342;-1.290;2023-08-30T09:56:37;3;1;
28026;PMS5003;15344;52.342;-1.290;2023-08-30T09:59:03;4;1;
28026;PMS5003;15344;52.342;-1.290;2023-08-30T10:01:29;1;1;
28026;PMS5003;15344;52.342;-1.290;2023-08-30T10:03:54;2;1;
28026;PMS5003;15344;52.342;-1.290;2023-08-30T10:06:20;1;1;
28026;PMS5003;15344;52.342;-1.290;2023-08-30T10:08:46;1;1;
28026;PMS5003;15344;52.342;-1.290;2023-08-30T10:11:12;1;0;
28026;PMS5003;15344;52.342;-1.290;2023-08-30T10:13:38;2;2;
28026;PMS5003;15344;52.342;-1.290;2023-08-30T10:16:03;1;1;
28026;PMS5003;15344;52.342;-1.290;2023-08-30T10:18:29;2;2;
28026;PMS5003;15344;52.342;-1.290;2023-08-30T10:20:55;0;0;
28026;PMS5003;15344;52.342;-1.290;2023-08-30T10:23:20;0;0;
28026;PMS5003;15344;52.342;-1.290;2023-08-30T10:25:46;4;1;
28026;PMS5003;15344;52.342;-1.290;2023-08-30T10:28:12;3;1;
28026;PMS5003;15344;52.342;-1.290;2023-08-30T10:30:38;1;1;
28026;PMS5003;15344;52.342;-1.290;2023-08-30T10:33:11;0;0;
28026;PMS5003;15344;52.342;-1.290;2023-08-30T10:35:28;0;0;
28026;PMS5003;15344;52.342;-1.290;2023-08-30T10:37:53;1;1;
28026;PMS5003;15344;52.342;-1.290;2023-08-30T10:40:18;1;1;
28026;PMS5003;15344;52.342;-1.290;2023-08-30T10:42:44;4;1;
28026;PMS5003;15344;52.342;-1.290;2023-08-30T10:45:10;2;0;
28026;PMS5003;15344;52.342;-1.290;2023-08-30T10:47:36;1;1;
28026;PMS5003;15344;52.342;-1.290;2023-08-30T10:50:04;1;1;
28026;PMS5003;15344;52.342;-1.290;2023-08-30T10:52:27;4;2;
28026;PMS5003;15344;52.342;-1.290;2023-08-30T10:55:03;3;1;
28026;PMS5003;15344;52.342;-1.290;2023-08-30T10:57:20;0;0;
28026;PMS5003;15344;52.342;-1.290;2023-08-30T11:02:11;1;1;
28026;PMS5003;15344;52.342;-1.290;2023-08-30T11:04:39;2;2;
28026;PMS5003;15344;52.342;-1.290;2023-08-30T11:07:03;2;2;
28026;PMS5003;15344;52.342;-1.290;2023-08-30T11:09:28;1;1;
28026;PMS5003;15344;52.342;-1.290;2023-08-30T11:11:54;4;1;
28026;PMS5003;15344;52.342;-1.290;2023-08-30T11:14:20;2;2;
28026;PMS5003;15344;52.342;-1.290;2023-08-30T11:16:46;4;1;
28026;PMS5003;15344;52.342;-1.290;2023-08-30T11:19:12;1;1;
28026;PMS5003;15344;52.342;-1.290;2023-08-30T11:21:38;1;1;
28026;PMS5003;15344;52.342;-1.290;2023-08-30T11:24:03;1;1;
28026;PMS5003;15344;52.342;-1.290;2023-08-30T11:26:29;1;1;
28026;PMS5003;15344;52.342;-1.290;2023-08-30T11:28:55;3;1;
28026;PMS5003;15344;52.342;-1.290;2023-08-30T11:31:21;1;1;
28026;PMS5003;15344;52.342;-1.290;2023-08-30T11:33:50;0;0;
28026;PMS5003;15344;52.342;-1.290;2023-08-30T11:36:13;2;1;
28026;PMS5003;15344;52.342;-1.290;2023-08-30T11:38:38;3;2;
28026;PMS5003;15344;52.342;-1.290;2023-08-30T11:41:03;0;0;
28026;PMS5003;15344;52.342;-1.290;2023-08-30T11:43:28;3;1;
28026;PMS5003;15344;52.342;-1.290;2023-08-30T11:45:55;1;1;
28026;PMS5003;15344;52.342;-1.290;2023-08-30T11:48:18;2;0;
28026;PMS5003;15344;52.342;-1.290;2023-08-30T11:50:43;1;1;
28026;PMS5003;15344;52.342;-1.290;2023-08-30T11:53:08;3;0;
28026;PMS5003;15344;52.342;-1.290;2023-08-30T11:55:33;1;1;
28026;PMS5003;15344;52.342;-1.290;2023-08-30T11:57:58;2;2;
28026;PMS5003;15344;52.342;-1.290;2023-08-30T12:00:23;2;2;
28026;PMS5003;15344;52.342;-1.290;2023-08-30T12:02:48;1;1;
28026;PMS5003;15344;52.342;-1.290;2023-08-30T12:05:13;2;2;
28026;PMS5003;15344;52.342;-1.290;2023-08-30T12:07:38;2;2;
28026;PMS5003;15344;52.342;-1.290;2023-08-30T12:10:04;3;2;
28026;PMS5003;15344;52.342;-1.290;2023-08-30T12:12:28;0;0;
28026;PMS5003;15344;52.342;-1.290;2023-08-30T12:14:54;4;3;
28026;PMS5003;15344;52.342;-1.290;2023-08-30T12:17:20;3;2;
28026;PMS5003;15344;52.342;-1.290;2023-08-30T12:19:43;3;2;
28026;PMS5003;15344;52.342;-1.290;2023-08-30T12:22:08;2;2;
28026;PMS5003;15344;52.342;-1.290;2023-08-30T12:26:58;1;1;
28026;PMS5003;15344;52.342;-1.290;2023-08-30T12:29:23;5;3;
28026;PMS5003;15344;52.342;-1.290;2023-08-30T12:31:48;0;0;
28026;PMS5003;15344;52.342;-1.290;2023-08-30T12:34:13;2;2;
28026;PMS5003;15344;52.342;-1.290;2023-08-30T12:36:39;3;1;
28026;PMS5003;15344;52.342;-1.290;2023-08-30T12:39:04;1;1;
28026;PMS5003;15344;52.342;-1.290;2023-08-30T12:41:29;3;1;
28026;PMS5003;15344;52.342;-1.290;2023-08-30T12:43:54;1;1;
28026;PMS5003;15344;52.342;-1.290;2023-08-30T12:46:19;2;2;
28026;PMS5003;15344;52.342;-1.290;2023-08-30T12:48:44;0;0;
28026;PMS5003;15344;52.342;-1.290;2023-08-30T12:51:09;3;1;
28026;PMS5003;15344;52.342;-1.290;2023-08-30T12:53:34;3;2;
28026;PMS5003;15344;52.342;-1.290;2023-08-30T12:55:59;3;1;
28026;PMS5003;15344;52.342;-1.290;2023-08-30T12:58:24;3;1;
28026;PMS5003;15344;52.342;-1.290;2023-08-30T13:00:49;2;2;
28026;PMS5003;15344;52.342;-1.290;2023-08-30T13:03:14;2;2;
28026;PMS5003;15344;52.342;-1.290;2023-08-30T13:05:39;1;1;
28026;PMS5003;15344;52.342;-1.290;2023-08-30T13:08:04;1;1;
28026;PMS5003;15344;52.342;-1.290;2023-08-30T13:10:29;4;2;
28026;PMS5003;15344;52.342;-1.290;2023-08-30T13:12:54;2;2;
28026;PMS5003;15344;52.342;-1.290;2023-08-30T13:15:19;1;1;
28026;PMS5003;15344;52.342;-1.290;2023-08-30T13:17:45;2;2;
28026;PMS5003;15344;52.342;-1.290;2023-08-30T13:20:10;3;3;
28026;PMS5003;15344;52.342;-1.290;2023-08-30T13:22:35;1;0;
28026;PMS5003;15344;52.342;-1.290;2023-08-30T13:25:01;4;3;
28026;PMS5003;15344;52.342;-1.290;2023-08-30T13:27:25;2;1;
28026;PMS5003;15344;52.342;-1.290;2023-08-30T13:29:50;3;1;
28026;PMS5003;15344;52.342;-1.290;2023-08-30T13:32:15;1;1;
28026;PMS5003;15344;52.342;-1.290;2023-08-30T13:34:40;1;1;
28026;PMS5003;15344;52.342;-1.290;2023-08-30T13:37:05;1;1;
28026;PMS5003;15344;52.342;-1.290;2023-08-30T13:39:30;1;1;
28026;PMS5003;15344;52.342;-1.290;2023-08-30T13:41:55;0;0;
28026;PMS5003;15344;52.342;-1.290;2023-08-30T13:44:20;3;3;
28026;PMS5003;15344;52.342;-1.290;2023-08-30T13:46:45;3;2;
28026;PMS5003;15344;52.342;-1.290;2023-08-30T13:49:10;3;0;
28026;PMS5003;15344;52.342;-1.290;2023-08-30T13:51:35;4;1;
28026;PMS5003;15344;52.342;-1.290;2023-08-30T13:54:00;1;1;
28026;PMS5003;15344;52.342;-1.290;2023-08-30T13:56:26;1;1;
28026;PMS5003;15344;52.342;-1.290;2023-08-30T13:58:51;2;1;
28026;PMS5003;15344;52.342;-1.290;2023-08-30T14:01:16;2;1;
28026;PMS5003;15344;52.342;-1.290;2023-08-30T14:03:41;1;1;
28026;PMS5003;15344;52.342;-1.290;2023-08-30T14:06:06;4;2;
28026;PMS5003;15344;52.342;-1.290;2023-08-30T14:08:31;1;1;
28026;PMS5003;15344;52.342;-1.290;2023-08-30T14:10:56;3;1;
28026;PMS5003;15344;52.342;-1.290;2023-08-30T14:13:21;1;1;
28026;PMS5003;15344;52.342;-1.290;2023-08-30T14:15:46;3;1;
28026;PMS5003;15344;52.342;-1.290;2023-08-30T14:18:11;3;1;
28026;PMS5003;15344;52.342;-1.290;2023-08-30T14:20:36;1;1;
28026;PMS5003;15344;52.342;-1.290;2023-08-30T14:23:01;4;1;
28026;PMS5003;15344;52.342;-1.290;2023-08-30T14:25:26;2;2;
28026;PMS5003;15344;52.342;-1.290;2023-08-30T14:27:51;2;0;
28026;PMS5003;15344;52.342;-1.290;2023-08-30T14:30:16;1;1;
28026;PMS5003;15344;52.342;-1.290;2023-08-30T14:32:41;0;0;
28026;PMS5003;15344;52.342;-1.290;2023-08-30T14:35:07;1;0;
28026;PMS5003;15344;52.342;-1.290;2023-08-30T14:37:31;2;1;
28026;PMS5003;15344;52.342;-1.290;2023-08-30T14:39:57;3;1;
28026;PMS5003;15344;52.342;-1.290;2023-08-30T14:42:22;2;2;
28026;PMS5003;15344;52.342;-1.290;2023-08-30T14:44:48;0;0;
28026;PMS5003;15344;52.342;-1.290;2023-08-30T14:47:12;0;0;
28026;PMS5003;15344;52.342;-1.290;2023-08-30T14:49:37;1;1;
28026;PMS5003;15344;52.342;-1.290;2023-08-30T14:52:02;1;1;
28026;PMS5003;15344;52.342;-1.290;2023-08-30T14:54:27;0;0;
28026;PMS5003;15344;52.342;-1.290;2023-08-30T14:56:52;1;1;
28026;PMS5003;15344;52.342;-1.290;2023-08-30T14:59:17;1;0;
28026;PMS5003;15344;52.342;-1.290;2023-08-30T15:01:42;4;1;
28026;PMS5003;15344;52.342;-1.290;2023-08-30T15:04:07;1;0;
28026;PMS5003;15344;52.342;-1.290;2023-08-30T15:06:32;1;1;
28026;PMS5003;15344;52.342;-1.290;2023-08-30T15:08:58;2;1;
28026;PMS5003;15344;52.342;-1.290;2023-08-30T15:11:23;1;1;
28026;PMS5003;15344;52.342;-1.290;2023-08-30T15:13:48;3;1;
28026;PMS5003;15344;52.342;-1.290;2023-08-30T15:16:14;0;0;
28026;PMS5003;15344;52.342;-1.290;2023-08-30T15:18:39;2;2;
28026;PMS5003;15344;52.342;-1.290;2023-08-30T15:21:04;2;2;
28026;PMS5003;15344;52.342;-1.290;2023-08-30T15:23:29;3;2;
28026;PMS5003;15344;52.342;-1.290;2023-08-30T15:25:54;3;3;
28026;PMS5003;15344;52.342;-1.290;2023-08-30T15:28:19;1;1;
28026;PMS5003;15344;52.342;-1.290;2023-08-30T15:30:44;0;0;
28026;PMS5003;15344;52.342;-1.290;2023-08-30T15:33:09;2;2;
28026;PMS5003;15344;52.342;-1.290;2023-08-30T15:35:36;2;1;
28026;PMS5003;15344;52.342;-1.290;2023-08-30T15:37:59;1;1;
28026;PMS5003;15344;52.342;-1.290;2023-08-30T15:40:24;3;2;
28026;PMS5003;15344;52.342;-1.290;2023-08-30T15:42:49;3;2;
28026;PMS5003;15344;52.342;-1.290;2023-08-30T15:45:14;2;2;
28026;PMS5003;15344;52.342;-1.290;2023-08-30T15:47:40;5;3;
28026;PMS5003;15344;52.342;-1.290;2023-08-30T15:50:06;2;2;
28026;PMS5003;15344;52.342;-1.290;2023-08-30T15:52:30;1;1;
28026;PMS5003;15344;52.342;-1.290;2023-08-30T15:54:55;2;2;
28026;PMS5003;15344;52.342;-1.290;2023-08-30T15:57:20;3;1;
28026;PMS5003;15344;52.342;-1.290;2023-08-30T15:59:45;2;2;
28026;PMS5003;15344;52.342;-1.290;2023-08-30T16:02:10;5;0;
28026;PMS5003;15344;52.342;-1.290;2023-08-30T16:04:35;3;3;
28026;PMS5003;15344;52.342;-1.290;2023-08-30T16:07:01;1;1;
28026;PMS5003;15344;52.342;-1.290;2023-08-30T16:09:26;1;1;
28026;PMS5003;15344;52.342;-1.290;2023-08-30T16:11:51;2;2;
28026;PMS5003;15344;52.342;-1.290;2023-08-30T16:14:16;1;1;
28026;PMS5003;15344;52.342;-1.290;2023-08-30T16:16:41;2;2;
28026;PMS5003;15344;52.342;-1.290;2023-08-30T16:19:06;3;1;
28026;PMS5003;15344;52.342;-1.290;2023-08-30T16:21:31;3;2;
28026;PMS5003;15344;52.342;-1.290;2023-08-30T16:23:56;2;1;
28026;PMS5003;15344;52.342;-1.290;2023-08-30T16:26:21;2;2;